Time;durP1;ratioP1;P1;durP2;ratioP2;P2;SDS_P1;SDS_P2;PMS_P1;PMS_P2;Temp;Humidity;BMP_temperature;BMP_pressure;BME280_temperature;BME280_humidity;BME280_pressure;Samples;Min_cycle;Max_cycle;Signal;HPM_P1;HPM_P2
2022/11/28 00:15:37;;;;;;;7.93;7.23;;;;;;;0.34;100.00;100889.05;1768766;80;25082;-71
2022/11/28 00:18:05;;;;;;;10.90;7.40;;;;;;;0.41;100.00;100894.91;1766521;81;20975;-71
2022/11/28 00:20:32;;;;;;;7.58;6.83;;;;;;;0.55;100.00;100898.80;1742384;81;21134;-72
2022/11/28 00:22:58;;;;;;;7.28;6.45;;;;;;;0.65;100.00;100899.53;1766410;81;20916;-72
2022/11/28 00:25:25;;;;;;;7.28;6.65;;;;;;;0.76;100.00;100900.61;1766497;81;20955;-72
2022/11/28 00:27:52;;;;;;;7.30;6.60;;;;;;;0.91;100.00;100894.23;1766349;81;21103;-72
2022/11/28 00:30:18;;;;;;;8.48;6.10;;;;;;;1.04;100.00;100896.44;1766315;81;20935;-71
2022/11/28 00:32:45;;;;;;;8.90;6.75;;;;;;;1.11;100.00;100902.74;1743197;81;22280;-72
2022/11/28 00:35:12;;;;;;;7.65;6.87;;;;;;;1.15;100.00;100903.59;1766323;81;21570;-70
2022/11/28 00:37:39;;;;;;;7.15;6.42;;;;;;;1.23;100.00;100905.45;1732520;82;21018;-71
2022/11/28 00:40:07;;;;;;;6.53;5.90;;;;;;;1.23;100.00;100909.44;1732395;82;21094;-71
2022/11/28 00:42:35;;;;;;;7.00;6.30;;;;;;;1.27;100.00;100904.14;1703270;83;21038;-71
2022/11/28 00:45:04;;;;;;;9.05;7.87;;;;;;;1.38;100.00;100910.98;1730409;82;21278;-72
2022/11/28 00:47:31;;;;;;;7.80;6.83;;;;;;;1.46;100.00;100911.00;1707533;82;20957;-73
2022/11/28 00:49:58;;;;;;;10.38;7.33;;;;;;;1.48;100.00;100905.05;1711115;83;21014;-72
2022/11/28 00:52:24;;;;;;;7.20;5.95;;;;;;;1.52;100.00;100901.92;1732506;82;20987;-71
2022/11/28 00:54:51;;;;;;;8.33;6.87;;;;;;;1.54;100.00;100902.56;1699922;84;21563;-74
2022/11/28 00:57:17;;;;;;;9.13;6.90;;;;;;;1.48;100.00;100904.56;1711356;83;21232;-74
2022/11/28 00:59:44;;;;;;;7.10;6.28;;;;;;;1.39;100.00;100901.52;1732429;82;21010;-72
2022/11/28 01:02:11;;;;;;;6.37;5.78;;;;;;;1.42;100.00;100895.09;1730359;82;21007;-73
2022/11/28 01:04:37;;;;;;;8.78;6.42;;;;;;;1.48;100.00;100896.61;1727950;82;21000;-73
2022/11/28 01:07:07;;;;;;;8.90;7.22;;;;;;;1.52;100.00;100899.76;1711587;83;21074;-72
2022/11/28 01:09:34;;;;;;;7.10;6.03;;;;;;;1.60;100.00;100901.09;1729674;83;21352;-72
2022/11/28 01:12:00;;;;;;;3.95;3.65;;;;;;;1.67;100.00;100900.30;1711489;83;20979;-73
2022/11/28 01:14:29;;;;;;;7.00;5.72;;;;;;;1.72;100.00;100899.31;1732613;82;20959;-72
2022/11/28 01:16:55;;;;;;;6.80;5.67;;;;;;;1.68;100.00;100897.96;1761194;81;20967;-70
2022/11/28 01:19:22;;;;;;;6.15;5.58;;;;;;;1.61;100.00;100902.27;1735049;81;20992;-71
2022/11/28 01:21:49;;;;;;;6.70;6.05;;;;;;;1.61;100.00;100904.09;1732487;81;21232;-70
2022/11/28 01:24:15;;;;;;;7.20;6.50;;;;;;;1.60;100.00;100911.70;1738643;81;20964;-70
2022/11/28 01:26:42;;;;;;;7.65;6.92;;;;;;;1.63;100.00;100908.74;1714416;82;20926;-69
2022/11/28 01:29:09;;;;;;;10.18;7.03;;;;;;;1.68;100.00;100901.94;1703263;84;20970;-72
2022/11/28 01:31:36;;;;;;;7.60;6.80;;;;;;;1.67;100.00;100902.13;1702288;84;21078;-74
2022/11/28 01:34:02;;;;;;;7.50;6.70;;;;;;;1.66;100.00;100901.78;1673703;85;21139;-73
2022/11/28 01:36:29;;;;;;;10.32;7.47;;;;;;;1.65;100.00;100904.09;1728099;82;21000;-74
2022/11/28 01:38:55;;;;;;;7.75;4.85;;;;;;;1.64;100.00;100901.10;1729410;83;21047;-74
2022/11/28 01:41:24;;;;;;;5.50;4.40;;;;;;;1.61;100.00;100903.59;1729351;82;20997;-74
2022/11/28 01:44:13;;;;;;;7.70;6.87;;;;;;;1.58;100.00;100903.90;1726532;83;21000;-73
2022/11/28 01:46:40;;;;;;;9.78;5.83;;;;;;;1.55;100.00;100904.72;1727333;82;22159;-74
2022/11/28 01:49:28;;;;;;;7.87;6.30;;;;;;;1.59;100.00;100906.06;1726370;82;20939;-73
2022/11/28 01:51:59;;;;;;;6.30;5.70;;;;;;;1.66;100.00;100910.57;1726855;83;20975;-75
2022/11/28 01:54:26;;;;;;;8.03;7.22;;;;;;;1.70;100.00;100909.25;1728735;83;21044;-72
2022/11/28 01:57:07;;;;;;;5.92;5.33;;;;;;;1.75;100.00;100913.57;1728317;81;20996;-73
2022/11/28 01:59:40;;;;;;;5.60;5.08;;;;;;;1.74;100.00;100909.74;1727020;83;22010;-73
2022/11/28 02:02:08;;;;;;;;;;;;;;;1.71;100.00;100916.22;1730246;81;21195;-73
2022/11/28 02:04:34;;;;;;;6.87;5.45;;;;;;;1.66;100.00;100920.34;1727619;82;20186;-74
2022/11/28 02:07:00;;;;;;;5.28;4.78;;;;;;;1.54;100.00;100914.98;1707622;82;20982;-74
2022/11/28 02:09:27;;;;;;;5.60;4.72;;;;;;;1.56;100.00;100916.50;1726327;83;21058;-77
2022/11/28 02:12:11;;;;;;;7.28;5.22;;;;;;;1.58;100.00;100915.03;1738978;81;21248;-71
2022/11/28 02:15:33;;;;;;;7.33;6.47;;;;;;;1.59;100.00;100909.55;1726843;82;20980;-70
2022/11/28 02:18:39;;;;;;;9.28;5.35;;;;;;;1.58;100.00;100906.55;1727736;83;21055;-70
2022/11/28 02:21:35;;;;;;;5.53;5.03;;;;;;;1.59;100.00;100913.52;1691134;84;21072;-68
2022/11/28 02:24:25;;;;;;;3.70;3.40;;;;;;;1.55;100.00;100907.38;1729228;83;21002;-69
2022/11/28 02:27:28;;;;;;;3.58;3.27;;;;;;;1.56;100.00;100908.55;1728771;82;22064;-70
2022/11/28 02:30:15;;;;;;;4.67;4.00;;;;;;;1.57;100.00;100904.91;1703474;84;21099;-70
2022/11/28 02:33:05;;;;;;;4.28;3.87;;;;;;;1.48;100.00;100910.36;1705246;82;20942;-66
2022/11/28 02:35:40;;;;;;;4.37;3.98;;;;;;;1.46;100.00;100910.50;1734105;81;21004;-72
2022/11/28 02:38:43;;;;;;;4.40;4.00;;;;;;;1.39;100.00;100906.83;1727985;81;21335;-73
2022/11/28 02:41:21;;;;;;;5.70;4.90;;;;;;;1.41;100.00;100914.13;1729061;81;21053;-71
2022/11/28 02:44:15;;;;;;;7.78;6.67;;;;;;;1.45;100.00;100919.44;1744430;81;20999;-73
2022/11/28 02:47:06;;;;;;;8.48;6.83;;;;;;;1.42;100.00;100915.80;1729790;83;20973;-72
2022/11/28 02:49:39;;;;;;;9.40;8.53;;;;;;;1.32;100.00;100923.05;1724904;81;21583;-73
2022/11/28 02:52:12;;;;;;;5.42;4.78;;;;;;;1.31;100.00;100923.54;1701497;83;21045;-71
2022/11/28 02:54:40;;;;;;;4.05;3.72;;;;;;;1.36;100.00;100926.20;1729678;81;21800;-73
2022/11/28 02:57:09;;;;;;;5.90;4.85;;;;;;;1.37;100.00;100926.05;1729775;82;21040;-71
2022/11/28 02:59:41;;;;;;;4.03;3.72;;;;;;;1.40;100.00;100924.39;1728927;82;20984;-71
2022/11/28 03:02:22;;;;;;;4.10;3.70;;;;;;;1.47;100.00;100929.89;1729720;82;21009;-72
2022/11/28 03:05:12;;;;;;;3.80;3.50;;;;;;;1.47;100.00;100929.41;1729472;82;21099;-72
2022/11/28 03:08:21;;;;;;;4.03;3.67;;;;;;;1.48;100.00;100933.72;1733953;81;21512;-73
2022/11/28 03:11:09;;;;;;;4.47;3.65;;;;;;;1.43;100.00;100936.52;1726979;83;20983;-72
2022/11/28 03:13:56;;;;;;;6.20;4.85;;;;;;;1.38;100.00;100931.70;1727948;81;21592;-69
2022/11/28 03:16:54;;;;;;;4.95;4.45;;;;;;;1.39;100.00;100934.66;1703243;83;21560;-69
2022/11/28 03:19:35;;;;;;;3.80;3.50;;;;;;;1.38;100.00;100934.34;1698550;84;21038;-69
2022/11/28 03:22:23;;;;;;;3.35;3.15;;;;;;;1.24;100.00;100933.13;1697000;84;21207;-68
2022/11/28 03:25:12;;;;;;;4.25;3.85;;;;;;;1.18;100.00;100932.93;1696888;84;21059;-74
2022/11/28 03:27:46;;;;;;;5.40;4.35;;;;;;;1.13;100.00;100937.87;1696811;84;20928;-75
2022/11/28 03:30:25;;;;;;;4.90;4.50;;;;;;;1.05;100.00;100943.97;1697620;84;21010;-74
2022/11/28 03:32:52;;;;;;;5.33;3.30;;;;;;;1.02;100.00;100947.41;1686148;83;21742;-73
2022/11/28 03:35:22;;;;;;;3.85;3.55;;;;;;;1.07;100.00;100953.06;1683870;84;21818;-73
2022/11/28 03:37:55;;;;;;;4.45;3.55;;;;;;;1.07;100.00;100951.73;1698292;84;21015;-73
2022/11/28 03:40:25;;;;;;;3.70;3.40;;;;;;;1.04;100.00;100952.90;1698077;84;21168;-78
2022/11/28 03:43:03;;;;;;;3.67;3.37;;;;;;;1.07;100.00;100954.39;1698132;84;20999;-78
2022/11/28 03:45:35;;;;;;;3.52;3.27;;;;;;;1.11;100.00;100955.73;1697693;84;21059;-70
2022/11/28 03:48:09;;;;;;;3.65;3.37;;;;;;;1.04;100.00;100955.55;1697872;84;21219;-69
2022/11/28 03:50:41;;;;;;;3.22;2.92;;;;;;;0.97;100.00;100958.96;1677718;84;21634;-70
2022/11/28 03:53:21;;;;;;;3.17;2.98;;;;;;;0.93;100.00;100958.94;1697885;84;20995;-70
2022/11/28 03:55:57;;;;;;;3.90;3.60;;;;;;;0.88;100.00;100959.41;1698792;84;21075;-69
2022/11/28 03:58:31;;;;;;;4.30;3.90;;;;;;;0.85;100.00;100959.73;1693150;84;21100;-70
2022/11/28 04:01:23;;;;;;;3.25;3.05;;;;;;;0.83;100.00;100965.18;1699229;84;21122;-70
2022/11/28 04:04:10;;;;;;;3.33;3.12;;;;;;;0.84;100.00;100965.52;1697011;84;21559;-71
2022/11/28 04:07:01;;;;;;;5.15;3.90;;;;;;;0.86;100.00;100964.05;1697377;84;20995;-69
2022/11/28 04:09:43;;;;;;;6.37;5.00;;;;;;;0.92;100.00;100970.52;1697633;84;21093;-69
2022/11/28 04:12:13;;;;;;;4.60;4.08;;;;;;;1.00;100.00;100974.56;1693990;84;21066;-67
2022/11/28 04:14:48;;;;;;;4.03;3.62;;;;;;;1.08;100.00;100976.76;1698160;82;22169;-69
2022/11/28 04:17:32;;;;;;;6.12;4.85;;;;;;;1.16;100.00;100975.96;1726610;83;20984;-70
2022/11/28 04:20:15;;;;;;;5.53;5.00;;;;;;;1.27;100.00;100975.20;1726789;82;21474;-70
2022/11/28 04:22:51;;;;;;;4.45;4.05;;;;;;;1.30;100.00;100974.05;1727379;83;20933;-68
2022/11/28 04:25:19;;;;;;;4.83;4.42;;;;;;;1.38;100.00;100974.10;1725650;82;20929;-70
2022/11/28 04:27:54;;;;;;;4.00;3.70;;;;;;;1.51;100.00;100978.45;1723795;83;21161;-72
2022/11/28 04:30:21;;;;;;;4.60;4.22;;;;;;;1.57;100.00;100980.97;1727039;83;21056;-70
2022/11/28 04:32:51;;;;;;;4.78;4.35;;;;;;;1.49;100.00;100976.45;1691507;84;20945;-69
2022/11/28 04:35:32;;;;;;;4.53;4.12;;;;;;;1.48;100.00;100983.26;1715910;83;20941;-70
2022/11/28 04:37:59;;;;;;;4.22;3.87;;;;;;;1.42;100.00;100978.58;1726202;82;21024;-73
2022/11/28 04:40:26;;;;;;;5.47;4.92;;;;;;;1.46;100.00;100971.97;1726573;83;21599;-70
2022/11/28 04:42:59;;;;;;;5.67;3.60;;;;;;;1.52;100.00;100976.64;1724441;82;21561;-71
2022/11/28 04:45:33;;;;;;;5.35;4.85;;;;;;;1.48;100.00;100970.84;1723950;83;21575;-73
2022/11/28 04:48:00;;;;;;;6.00;5.15;;;;;;;1.48;100.00;100976.63;1712463;82;21057;-71
2022/11/28 04:50:30;;;;;;;5.97;5.37;;;;;;;1.42;100.00;100973.28;1727442;82;21021;-69
2022/11/28 04:53:09;;;;;;;6.80;6.15;;;;;;;1.33;100.00;100974.23;1727485;83;21334;-70
2022/11/28 04:55:47;;;;;;;6.25;5.65;;;;;;;1.30;100.00;100984.16;1724781;82;21587;-69
2022/11/28 04:58:23;;;;;;;6.25;5.65;;;;;;;1.28;100.00;100987.97;1727225;83;21072;-70
2022/11/28 05:00:50;;;;;;;7.00;6.35;;;;;;;1.29;100.00;100994.93;1649141;84;21092;-68
2022/11/28 05:03:16;;;;;;;20.50;16.15;;;;;;;1.31;100.00;100985.82;1727391;82;20988;-69
2022/11/28 05:05:46;;;;;;;5.60;5.00;;;;;;;1.34;100.00;100988.67;1723836;83;22050;-70
2022/11/28 05:08:13;;;;;;;7.15;6.45;;;;;;;1.39;100.00;100987.67;1724075;83;21003;-71
2022/11/28 05:10:40;;;;;;;5.50;5.00;;;;;;;1.40;100.00;100988.01;1726721;83;21005;-68
2022/11/28 05:13:06;;;;;;;5.08;4.58;;;;;;;1.30;100.00;100992.10;1691796;84;20998;-68
2022/11/28 05:15:33;;;;;;;7.75;5.80;;;;;;;1.22;100.00;100994.72;1726239;83;21022;-70
2022/11/28 05:18:00;;;;;;;4.90;4.47;;;;;;;1.17;100.00;100991.71;1726802;83;21175;-70
2022/11/28 05:20:26;;;;;;;5.62;5.12;;;;;;;1.22;100.00;100999.19;1729704;83;20991;-71
2022/11/28 05:22:54;;;;;;;6.37;5.87;;;;;;;1.23;100.00;100997.71;1719350;83;20969;-72
2022/11/28 05:25:20;;;;;;;5.53;5.03;;;;;;;1.23;100.00;101004.34;1728973;81;21567;-73
2022/11/28 05:27:47;;;;;;;5.30;4.75;;;;;;;1.21;100.00;101005.47;1714266;83;21032;-69
2022/11/28 05:30:14;;;;;;;5.08;4.15;;;;;;;1.17;100.00;101012.08;1730102;83;21228;-69
2022/11/28 05:32:40;;;;;;;4.42;4.08;;;;;;;1.16;100.00;101009.08;1719385;83;21000;-69
2022/11/28 05:35:07;;;;;;;6.03;5.42;;;;;;;1.16;100.00;101011.73;1727570;83;20991;-71
2022/11/28 05:37:35;;;;;;;5.75;5.25;;;;;;;1.16;100.00;101011.73;1723262;82;21470;-70
2022/11/28 05:40:01;;;;;;;5.58;5.08;;;;;;;1.16;100.00;101017.03;1729716;83;21553;-71
2022/11/28 05:42:33;;;;;;;5.87;5.37;;;;;;;1.15;100.00;101008.77;1729682;83;22033;-71
2022/11/28 05:45:00;;;;;;;6.20;5.60;;;;;;;1.17;100.00;101014.23;1729521;83;21540;-70
2022/11/28 05:47:30;;;;;;;5.87;5.35;;;;;;;1.14;100.00;101017.70;1730201;83;21565;-71
2022/11/28 17:17:49;;;;;;;51.33;28.47;;;;;;;0.93;100.00;101113.40;1733428;82;23424;-70
2022/11/28 17:20:16;;;;;;;47.13;28.85;;;;;;;1.00;100.00;101104.36;1802974;79;21062;-70
2022/11/28 17:22:45;;;;;;;50.52;33.45;;;;;;;1.07;100.00;101106.72;1766552;80;21029;-73
2022/11/28 17:25:17;;;;;;;52.05;32.03;;;;;;;1.14;100.00;101105.97;1763146;80;21006;-72
2022/11/28 17:27:44;;;;;;;44.30;27.32;;;;;;;1.18;100.00;101109.13;1784845;80;20970;-69
2022/11/28 17:30:15;;;;;;;43.08;28.23;;;;;;;1.27;100.00;101108.20;1784915;80;21004;-70
2022/11/28 17:32:42;;;;;;;40.58;25.85;;;;;;;1.33;100.00;101109.41;1783925;79;20896;-70
2022/11/28 17:35:15;;;;;;;40.33;26.65;;;;;;;1.40;100.00;101103.31;1790593;80;21028;-70
2022/11/28 17:37:44;;;;;;;41.05;27.50;;;;;;;1.48;100.00;101111.34;1790723;80;20965;-70
2022/11/28 17:42:57;;;;;;;39.50;24.82;;;;;;;1.59;100.00;101111.05;1768446;80;20993;-69
2022/11/28 17:45:24;;;;;;;41.65;28.00;;;;;;;1.65;100.00;101114.41;1787859;78;21711;-68
2022/11/28 17:47:50;;;;;;;44.58;29.15;;;;;;;1.73;100.00;101110.47;1759086;80;22199;-71
2022/11/28 17:50:18;;;;;;;48.13;30.27;;;;;;;1.74;100.00;101114.79;1789219;80;21013;-71
2022/11/28 17:52:46;;;;;;;47.10;30.60;;;;;;;1.76;100.00;101105.36;1784723;79;21514;-70
2022/11/28 17:55:12;;;;;;;36.53;25.90;;;;;;;1.76;100.00;101109.34;1758228;80;20924;-70
2022/11/28 17:57:39;;;;;;;38.45;26.05;;;;;;;1.74;100.00;101106.00;1803183;78;21077;-70
2022/11/28 18:00:08;;;;;;;36.20;24.63;;;;;;;1.68;100.00;101106.62;1780893;78;21096;-69
2022/11/28 18:02:42;;;;;;;31.12;22.65;;;;;;;1.65;100.00;101102.48;1793434;78;21025;-70
2022/11/28 18:05:12;;;;;;;29.00;22.87;;;;;;;1.63;100.00;101102.31;1787734;80;21617;-76
2022/11/28 18:07:40;;;;;;;27.05;20.55;;;;;;;1.56;100.00;101111.37;1753846;81;21613;-73
2022/11/28 18:10:10;;;;;;;26.82;20.08;;;;;;;1.55;100.00;101103.08;1753932;80;21038;-72
2022/11/28 18:12:39;;;;;;;22.50;16.17;;;;;;;1.62;100.00;101104.63;1765134;80;21144;-72
2022/11/28 18:15:09;;;;;;;26.07;17.10;;;;;;;1.71;100.00;101103.19;1776157;80;21637;-69
2022/11/28 18:17:36;;;;;;;19.73;13.62;;;;;;;1.83;100.00;101106.38;1756090;80;21071;-67
2022/11/28 22:38:19;;;;;;;17.77;12.00;;;;;;;1.40;100.00;101121.03;1747209;77;33586;-75
2022/11/28 22:40:46;;;;;;;18.87;14.05;;;;;;;1.44;100.00;101130.37;1712706;82;21001;-79
2022/11/28 22:43:12;;;;;;;16.50;11.97;;;;;;;1.55;100.00;101131.41;1703242;83;21214;-86
2022/11/28 22:45:39;;;;;;;15.30;11.00;;;;;;;1.61;100.00;101127.66;1713659;82;20965;-84
2022/11/28 22:48:06;;;;;;;14.25;10.35;;;;;;;1.74;100.00;101131.20;1732161;82;20996;-86
2022/11/28 22:50:32;;;;;;;18.27;11.50;;;;;;;1.89;100.00;101132.28;1707483;82;21075;-72
2022/11/28 22:52:59;;;;;;;14.68;11.22;;;;;;;1.95;100.00;101125.51;1733366;82;20969;-70
2022/11/28 22:55:25;;;;;;;15.72;12.13;;;;;;;2.02;100.00;101127.36;1734059;81;21392;-76
2022/11/28 22:57:52;;;;;;;15.00;11.55;;;;;;;2.07;100.00;101126.38;1747568;81;21002;-79
2022/11/28 23:00:21;;;;;;;13.08;10.30;;;;;;;2.12;100.00;101129.88;1761728;81;21014;-77
2022/11/28 23:02:49;;;;;;;13.05;9.88;;;;;;;2.06;100.00;101129.22;1733893;81;21024;-78
2022/11/28 23:05:17;;;;;;;12.68;11.28;;;;;;;2.11;100.00;101134.36;1740805;81;21658;-69
2022/11/28 23:07:44;;;;;;;12.53;9.30;;;;;;;2.19;100.00;101135.73;1761768;81;21654;-70
2022/11/28 23:10:10;;;;;;;11.43;9.23;;;;;;;2.21;100.00;101137.41;1761434;81;21093;-71
2022/11/28 23:12:39;;;;;;;9.13;7.30;;;;;;;2.14;100.00;101133.22;1761714;81;20962;-70
2022/11/28 23:15:08;;;;;;;11.75;8.03;;;;;;;2.14;100.00;101133.22;1737711;81;21519;-73
2022/11/28 23:17:35;;;;;;;14.00;9.38;;;;;;;2.07;100.00;101126.88;1731635;81;21637;-72
2022/11/28 23:20:03;;;;;;;9.15;7.45;;;;;;;2.06;100.00;101130.02;1761544;81;21831;-71
2022/11/28 23:22:34;;;;;;;10.50;8.50;;;;;;;2.11;100.00;101129.57;1731579;81;21098;-72
2022/11/28 23:25:01;;;;;;;12.05;8.53;;;;;;;2.17;100.00;101123.60;1731663;81;21062;-72
2022/11/28 23:27:28;;;;;;;9.05;7.55;;;;;;;2.21;100.00;101128.92;1719644;81;21118;-73
2022/11/28 23:29:54;;;;;;;11.65;8.35;;;;;;;2.05;100.00;101120.42;1713149;82;21058;-73
2022/11/28 23:32:22;;;;;;;11.22;8.78;;;;;;;1.97;100.00;101112.41;1698595;83;21641;-74
2022/11/28 23:34:48;;;;;;;14.28;9.15;;;;;;;1.99;100.00;101109.61;1708984;83;20990;-76
2022/11/28 23:37:15;;;;;;;11.28;8.50;;;;;;;2.04;100.00;101113.94;1685880;84;20985;-75
2022/11/28 23:39:42;;;;;;;11.12;9.20;;;;;;;2.03;100.00;101106.96;1618780;86;21638;-71
2022/11/28 23:42:08;;;;;;;11.80;8.85;;;;;;;2.03;100.00;101109.13;1653056;85;21561;-70
2022/11/28 23:44:35;;;;;;;14.05;9.23;;;;;;;2.01;100.00;101112.94;1658988;85;21089;-71
2022/11/28 23:47:02;;;;;;;9.35;8.00;;;;;;;1.97;100.00;101104.45;1680384;83;20970;-70
2022/11/28 23:49:29;;;;;;;14.05;9.08;;;;;;;2.00;100.00;101100.66;1679551;85;21559;-68
2022/11/28 23:51:56;;;;;;;11.20;8.63;;;;;;;2.01;100.00;101108.97;1679668;85;21397;-71
2022/11/28 23:54:22;;;;;;;11.60;8.88;;;;;;;2.04;100.00;101105.48;1679305;85;21074;-72
2022/11/28 23:56:51;;;;;;;12.15;9.03;;;;;;;2.02;100.00;101106.62;1680345;83;21101;-71
2022/11/28 23:59:17;;;;;;;12.53;10.48;;;;;;;1.99;100.00;101102.97;1679033;85;21547;-68
